createdAt,value
2018-08-13T00:01:14.212Z,2.90
2018-08-13T00:03:42.700Z,3.13
2018-08-13T00:06:11.018Z,2.80
2018-08-13T00:08:39.987Z,2.90
2018-08-13T00:11:08.244Z,3.20
2018-08-13T00:13:36.601Z,2.73
2018-08-13T00:16:04.944Z,3.03
2018-08-13T00:18:33.231Z,3.03
2018-08-13T00:21:01.777Z,3.07
2018-08-13T00:23:31.101Z,2.90
2018-08-13T00:25:59.379Z,3.15
2018-08-13T00:28:27.661Z,3.33
2018-08-13T00:30:55.938Z,3.20
2018-08-13T00:33:24.408Z,3.43
2018-08-13T00:35:52.731Z,3.60
2018-08-13T00:38:21.030Z,3.47
2018-08-13T00:40:49.445Z,3.70
2018-08-13T00:43:17.952Z,3.20
2018-08-13T00:45:46.285Z,2.90
2018-08-13T00:48:14.721Z,3.90
2018-08-13T00:50:43.018Z,3.80
2018-08-13T00:53:11.436Z,3.23
2018-08-13T00:55:39.760Z,3.67
2018-08-13T00:58:07.998Z,3.60
2018-08-13T01:00:36.246Z,3.90
2018-08-13T01:03:04.752Z,2.77
2018-08-13T01:05:33.138Z,3.17
2018-08-13T01:08:01.479Z,3.47
2018-08-13T01:10:29.803Z,3.37
2018-08-13T01:12:58.160Z,3.30
2018-08-13T01:15:27.680Z,3.43
2018-08-13T01:17:56.046Z,3.23
2018-08-13T01:20:24.372Z,3.20
2018-08-13T01:22:52.746Z,3.17
2018-08-13T01:25:21.415Z,3.10
2018-08-13T01:27:49.682Z,3.30
2018-08-13T01:30:19.158Z,3.50
2018-08-13T01:32:47.414Z,3.40
2018-08-13T01:35:15.876Z,3.27
2018-08-13T01:37:44.146Z,3.37
2018-08-13T01:40:12.966Z,3.53
2018-08-13T01:42:41.610Z,4.30
2018-08-13T01:45:12.103Z,4.23
2018-08-13T01:47:40.940Z,3.90
2018-08-13T01:50:10.721Z,4.77
2018-08-13T01:52:38.980Z,3.83
2018-08-13T01:55:08.558Z,4.43
2018-08-13T01:57:36.843Z,3.90
2018-08-13T02:00:08.292Z,4.20
2018-08-13T02:02:36.585Z,4.13
2018-08-13T02:05:06.668Z,4.37
2018-08-13T02:07:34.986Z,4.40
2018-08-13T02:10:03.245Z,4.10
2018-08-13T02:12:31.706Z,4.03
2018-08-13T02:15:00.140Z,3.90
2018-08-13T02:17:28.443Z,4.17
2018-08-13T02:19:56.722Z,4.07
2018-08-13T02:22:24.971Z,3.83
2018-08-13T02:24:53.451Z,4.20
2018-08-13T02:27:21.802Z,4.00
2018-08-13T02:29:50.083Z,4.40
2018-08-13T02:32:18.353Z,4.17
2018-08-13T02:34:46.798Z,4.20
2018-08-13T02:37:15.123Z,4.10
2018-08-13T02:39:43.435Z,4.63
2018-08-13T02:42:11.726Z,4.20
2018-08-13T02:44:40.223Z,3.83
2018-08-13T02:47:08.519Z,4.37
2018-08-13T02:49:36.869Z,4.23
2018-08-13T02:52:05.245Z,4.70
2018-08-13T02:54:33.794Z,4.90
2018-08-13T02:57:02.173Z,4.00
2018-08-13T02:59:30.522Z,4.70
2018-08-13T03:01:58.861Z,4.97
2018-08-13T03:04:27.364Z,4.50
2018-08-13T03:06:55.605Z,4.83
2018-08-13T03:09:23.927Z,5.20
2018-08-13T03:11:52.183Z,4.90
2018-08-13T03:14:20.630Z,5.07
2018-08-13T03:16:48.900Z,4.57
2018-08-13T03:19:17.167Z,4.80
2018-08-13T03:21:45.469Z,4.77
2018-08-13T03:24:13.921Z,5.13
2018-08-13T03:26:42.346Z,4.77
2018-08-13T03:29:10.585Z,4.70
2018-08-13T03:31:39.021Z,4.70
2018-08-13T03:34:07.300Z,4.97
2018-08-13T03:36:35.567Z,4.40
2018-08-13T03:39:06.264Z,5.43
2018-08-13T03:41:34.548Z,4.50
2018-08-13T03:44:02.850Z,4.57
2018-08-13T03:46:31.178Z,4.47
2018-08-13T03:48:59.470Z,4.63
2018-08-13T03:51:27.742Z,5.00
2018-08-13T03:53:56.053Z,5.00
2018-08-13T03:56:24.237Z,5.57
2018-08-13T03:58:52.478Z,4.17
2018-08-13T04:01:20.716Z,4.73
2018-08-13T04:03:49.107Z,4.23
2018-08-13T04:06:17.425Z,5.03
2018-08-13T04:08:45.737Z,4.40
2018-08-13T04:11:14.138Z,5.33
2018-08-13T04:13:42.609Z,5.37
2018-08-13T04:16:10.873Z,5.00
2018-08-13T04:18:39.167Z,4.60
2018-08-13T04:21:07.491Z,4.87
2018-08-13T04:23:36.004Z,5.10
2018-08-13T04:26:04.383Z,4.97
2018-08-13T04:28:32.678Z,4.93
2018-08-13T04:31:01.999Z,5.07
2018-08-13T04:33:30.470Z,5.20
2018-08-13T04:35:58.963Z,5.77
2018-08-13T04:38:27.260Z,4.87
2018-08-13T04:40:55.550Z,5.17
2018-08-13T04:43:23.953Z,5.00
2018-08-13T04:45:52.271Z,5.20
2018-08-13T04:48:20.549Z,4.97
2018-08-13T04:50:48.827Z,5.37
2018-08-13T04:53:17.290Z,5.70
2018-08-13T04:55:45.621Z,5.83
2018-08-13T04:58:13.888Z,5.80
2018-08-13T05:00:42.189Z,5.27
2018-08-13T05:03:10.590Z,5.87
2018-08-13T05:05:39.335Z,5.37
2018-08-13T05:08:07.655Z,5.10
2018-08-13T05:10:35.896Z,6.03
2018-08-13T05:13:04.184Z,5.57
2018-08-13T05:15:32.495Z,5.37
2018-08-13T05:18:01.454Z,5.73
2018-08-13T05:20:29.850Z,6.10
2018-08-13T05:22:58.185Z,5.70
2018-08-13T05:25:26.612Z,5.53
2018-08-13T05:27:54.868Z,5.67
2018-08-13T05:30:23.205Z,5.47
2018-08-13T05:32:51.465Z,6.23
2018-08-13T05:35:20.812Z,6.00
2018-08-13T05:37:49.198Z,5.97
2018-08-13T05:40:17.471Z,5.77
2018-08-13T05:42:45.750Z,5.30
2018-08-13T05:45:14.130Z,5.70
2018-08-13T05:47:42.384Z,5.63
2018-08-13T05:50:11.419Z,5.80
2018-08-13T05:52:39.745Z,5.87
2018-08-13T05:55:08.907Z,5.93
2018-08-13T05:57:37.331Z,6.10
2018-08-13T06:00:08.758Z,6.50
2018-08-13T06:02:38.737Z,5.73
2018-08-13T06:05:08.370Z,5.70
2018-08-13T06:07:36.637Z,5.73
2018-08-13T06:10:06.347Z,6.03
2018-08-13T06:12:34.599Z,5.97
2018-08-13T06:15:03.137Z,6.13
2018-08-13T06:17:31.489Z,5.87
2018-08-13T06:19:59.818Z,5.67
2018-08-13T06:22:28.223Z,5.40
2018-08-13T06:24:56.647Z,6.20
2018-08-13T06:27:24.932Z,6.03
2018-08-13T06:29:53.317Z,5.53
2018-08-13T06:32:21.644Z,5.70
2018-08-13T06:34:51.173Z,5.80
2018-08-13T06:37:19.524Z,5.77
2018-08-13T06:39:47.717Z,5.50
2018-08-13T06:42:16.117Z,5.37
2018-08-13T06:44:44.413Z,5.80
2018-08-13T06:47:12.682Z,5.67
2018-08-13T06:49:40.968Z,5.67
2018-08-13T06:52:09.251Z,5.53
2018-08-13T06:54:37.710Z,6.07
2018-08-13T06:57:06.606Z,5.73
2018-08-13T06:59:34.925Z,5.63
2018-08-13T07:02:03.197Z,5.57
2018-08-13T07:04:31.788Z,6.47
2018-08-13T07:07:00.022Z,6.03
2018-08-13T07:09:28.327Z,6.00
2018-08-13T07:11:56.549Z,5.83
2018-08-13T07:14:24.993Z,6.37
2018-08-13T07:16:53.357Z,5.83
2018-08-13T07:19:21.648Z,6.23
2018-08-13T07:21:50.021Z,6.10
2018-08-13T07:24:18.419Z,5.87
2018-08-13T07:26:46.637Z,5.63
2018-08-13T07:29:14.905Z,5.80
2018-08-13T07:31:43.198Z,5.13
2018-08-13T07:34:12.673Z,5.00
2018-08-13T07:36:40.968Z,5.27
2018-08-13T07:39:10.294Z,5.97
2018-08-13T07:41:38.863Z,5.57
2018-08-13T07:44:07.847Z,5.70
2018-08-13T07:46:36.390Z,4.73
2018-08-13T07:49:04.708Z,4.93
2018-08-13T07:54:35.012Z,4.63
2018-08-13T07:57:03.390Z,5.13
2018-08-13T07:59:31.638Z,4.80
2018-08-13T08:01:59.894Z,4.73
2018-08-13T08:04:28.352Z,4.80
2018-08-13T08:06:56.672Z,4.97
2018-08-13T08:09:25.476Z,5.00
2018-08-13T08:11:53.832Z,5.00
2018-08-13T08:14:22.248Z,4.97
2018-08-13T08:16:50.565Z,4.27
2018-08-13T08:19:18.873Z,5.17
2018-08-13T08:21:47.124Z,4.63
2018-08-13T08:24:15.538Z,4.70
2018-08-13T08:26:43.870Z,5.10
2018-08-13T08:31:38.102Z,5.40
2018-08-13T08:34:07.121Z,5.40
2018-08-13T08:36:35.448Z,5.30
2018-08-13T08:39:06.477Z,6.70
2018-08-13T08:41:34.787Z,6.03
2018-08-13T08:44:03.306Z,6.30
2018-08-13T08:46:31.590Z,5.80
2018-08-13T08:48:59.989Z,5.87
2018-08-13T08:51:28.250Z,5.50
2018-08-13T08:53:56.754Z,5.97
2018-08-13T08:56:25.009Z,5.50
2018-08-13T08:58:53.317Z,6.63
2018-08-13T09:01:21.701Z,5.70
2018-08-13T09:03:49.958Z,6.07
2018-08-13T09:06:18.361Z,5.87
2018-08-13T09:08:46.635Z,6.00
2018-08-13T09:11:14.875Z,5.83
2018-08-13T09:13:43.286Z,6.83
2018-08-13T09:16:11.515Z,6.53
2018-08-13T09:18:51.178Z,6.50
2018-08-13T09:21:28.610Z,6.57
2018-08-13T09:24:08.810Z,6.13
2018-08-13T09:26:48.334Z,6.10
2018-08-13T09:29:28.083Z,6.40
2018-08-13T09:32:22.038Z,6.33
2018-08-13T09:35:31.255Z,6.53
2018-08-13T09:37:59.502Z,5.60
2018-08-13T09:40:28.738Z,5.77
2018-08-13T09:42:57.135Z,5.80
2018-08-13T09:45:26.658Z,5.83
2018-08-13T09:47:54.945Z,5.77
2018-08-13T09:50:23.407Z,5.50
2018-08-13T09:52:51.987Z,6.57
2018-08-13T09:55:20.739Z,6.23
2018-08-13T09:57:49.866Z,5.87
2018-08-13T10:00:24.686Z,6.43
2018-08-13T10:02:53.066Z,6.10
2018-08-13T10:05:21.616Z,6.57
2018-08-13T10:07:49.912Z,5.83
2018-08-13T10:10:18.403Z,5.70
2018-08-13T10:12:46.987Z,6.07
2018-08-13T10:15:15.723Z,6.53
2018-08-13T10:17:44.055Z,6.10
2018-08-13T10:20:17.495Z,7.67
2018-08-13T10:22:45.830Z,7.00
2018-08-13T10:25:14.518Z,5.97
2018-08-13T10:27:42.963Z,6.23
2018-08-13T10:30:12.576Z,5.77
2018-08-13T10:32:41.400Z,5.90
2018-08-13T10:35:10.286Z,5.83
2018-08-13T10:37:38.938Z,5.63
2018-08-13T10:40:09.631Z,5.37
2018-08-13T10:42:38.229Z,5.00
2018-08-13T10:51:12.494Z,4.57
2018-08-13T10:53:40.860Z,4.40
2018-08-13T10:56:12.167Z,4.37
2018-08-13T10:58:40.406Z,3.77
2018-08-13T11:01:15.142Z,4.03
2018-08-13T11:03:43.724Z,4.20
2018-08-13T11:06:12.088Z,3.77
2018-08-13T11:08:40.415Z,4.33
2018-08-13T11:11:08.657Z,3.87
2018-08-13T11:13:37.219Z,3.97
2018-08-13T11:16:05.569Z,4.30
2018-08-13T11:18:33.815Z,4.20
2018-08-13T11:21:02.118Z,4.37
2018-08-13T11:23:30.654Z,4.67
2018-08-13T11:25:59.937Z,4.17
2018-08-13T11:28:28.266Z,4.30
2018-08-13T11:30:56.550Z,4.73
2018-08-13T11:33:24.996Z,5.10
2018-08-13T11:35:53.305Z,4.80
2018-08-13T11:38:21.648Z,5.20
2018-08-13T11:40:49.916Z,5.87
2018-08-13T11:43:18.223Z,5.07
2018-08-13T11:45:46.562Z,5.03
2018-08-13T11:48:14.890Z,4.70
2018-08-13T11:50:43.182Z,4.60
2018-08-13T11:53:11.497Z,3.30
2018-08-13T11:55:39.839Z,2.17
2018-08-13T11:58:08.153Z,2.40
2018-08-13T12:00:36.546Z,2.60
2018-08-13T12:03:05.101Z,3.00
2018-08-13T12:05:33.478Z,3.27
2018-08-13T12:08:01.789Z,3.33
2018-08-13T12:10:30.386Z,3.37
2018-08-13T12:12:58.720Z,3.33
2018-08-13T12:15:27.121Z,3.97
2018-08-13T12:17:55.395Z,3.60
2018-08-13T12:20:23.651Z,4.50
2018-08-13T12:22:51.924Z,4.63
2018-08-13T12:25:23.167Z,4.73
2018-08-13T12:27:51.557Z,3.97
2018-08-13T12:30:20.031Z,2.77
2018-08-13T12:32:49.077Z,2.10
2018-08-13T12:35:17.816Z,1.60
2018-08-13T12:37:46.367Z,1.30
2018-08-13T12:40:14.767Z,1.30
2018-08-13T12:42:43.109Z,1.40
2018-08-13T12:45:13.819Z,1.43
2018-08-13T12:47:42.359Z,1.33
2018-08-13T12:50:12.567Z,1.70
2018-08-13T12:52:41.187Z,1.90
2018-08-13T12:55:10.987Z,2.30
2018-08-13T12:57:39.229Z,2.23
2018-08-13T13:00:11.931Z,1.45
2018-08-13T13:02:40.621Z,1.80
2018-08-13T13:05:10.331Z,1.70
2018-08-13T13:07:38.786Z,2.00
2018-08-13T13:10:10.349Z,2.67
2018-08-13T13:12:38.843Z,2.40
2018-08-13T13:15:09.677Z,2.80
2018-08-13T13:17:38.854Z,2.77
2018-08-13T13:20:11.018Z,2.72
2018-08-13T13:22:39.393Z,2.80
2018-08-13T13:25:08.077Z,2.50
2018-08-13T13:27:37.100Z,2.73
2018-08-13T13:30:07.490Z,2.90
2018-08-13T13:32:35.845Z,2.83
2018-08-13T13:35:05.267Z,2.90
2018-08-13T13:37:33.682Z,2.57
2018-08-13T13:40:02.003Z,2.90
2018-08-13T13:42:30.999Z,3.00
2018-08-13T13:45:00.435Z,3.03
2018-08-13T13:47:28.755Z,3.07
2018-08-13T13:49:57.091Z,2.83
2018-08-13T13:52:25.435Z,2.43
2018-08-13T13:54:53.789Z,2.33
2018-08-13T13:57:22.160Z,3.23
2018-08-13T13:59:50.430Z,3.17
2018-08-13T14:02:18.830Z,2.63
2018-08-13T14:04:47.283Z,2.70
2018-08-13T14:07:15.619Z,3.07
2018-08-13T14:09:43.935Z,3.73
2018-08-13T14:12:12.250Z,3.80
2018-08-13T14:14:40.503Z,3.40
2018-08-13T14:17:08.846Z,3.90
2018-08-13T14:19:37.454Z,3.67
2018-08-13T14:22:05.961Z,3.97
2018-08-13T14:24:34.487Z,4.03
2018-08-13T14:27:02.871Z,3.93
2018-08-13T14:29:31.203Z,3.50
2018-08-13T14:31:59.575Z,4.00
2018-08-13T14:34:28.133Z,4.20
2018-08-13T14:36:56.463Z,4.13
2018-08-13T14:39:24.900Z,4.10
2018-08-13T14:41:53.264Z,4.07
2018-08-13T14:44:21.717Z,3.77
2018-08-13T14:46:50.024Z,3.97
2018-08-13T14:49:18.327Z,3.30
2018-08-13T14:51:46.647Z,3.00
2018-08-13T14:54:14.989Z,3.63
2018-08-13T14:56:43.347Z,2.97
2018-08-13T14:59:11.669Z,3.33
2018-08-13T15:01:39.996Z,2.97
2018-08-13T15:04:08.262Z,2.80
2018-08-13T15:06:36.563Z,3.03
2018-08-13T15:09:07.623Z,3.00
2018-08-13T15:11:35.964Z,2.63
2018-08-13T15:14:04.716Z,2.67
2018-08-13T15:16:33.051Z,2.87
2018-08-13T15:19:01.444Z,3.10
2018-08-13T15:21:29.725Z,2.53
2018-08-13T15:23:58.219Z,3.00
2018-08-13T15:26:26.553Z,3.10
2018-08-13T15:28:54.873Z,3.37
2018-08-13T15:31:23.159Z,2.97
2018-08-13T15:33:52.471Z,3.10
2018-08-13T15:36:20.842Z,3.20
2018-08-13T15:38:49.191Z,3.40
2018-08-13T15:41:17.561Z,3.40
2018-08-13T15:43:46.422Z,3.27
2018-08-13T15:46:14.813Z,3.27
2018-08-13T15:48:43.116Z,3.40
2018-08-13T15:51:11.418Z,3.40
2018-08-13T15:53:39.773Z,3.30
2018-08-13T15:56:08.092Z,3.10
2018-08-13T15:58:36.391Z,2.80
2018-08-13T16:01:04.877Z,3.20
2018-08-13T16:03:33.336Z,2.90
2018-08-13T16:06:01.842Z,3.10
2018-08-13T16:08:30.184Z,3.60
2018-08-13T16:10:58.447Z,3.47
2018-08-13T16:13:26.775Z,3.53
2018-08-13T16:15:55.026Z,3.80
2018-08-13T16:18:23.311Z,3.77
2018-08-13T16:20:51.631Z,4.20
2018-08-13T16:23:20.199Z,3.90
2018-08-13T16:25:48.494Z,4.03
2018-08-13T16:28:16.826Z,3.90
2018-08-13T16:30:45.187Z,3.77
2018-08-13T16:33:13.680Z,3.50
2018-08-13T16:35:42.014Z,3.83
2018-08-13T16:38:10.280Z,4.60
2018-08-13T16:40:38.589Z,5.27
2018-08-13T16:43:06.950Z,5.20
2018-08-13T16:45:35.298Z,4.80
2018-08-13T16:48:03.801Z,5.70
2018-08-13T16:50:33.270Z,4.93
2018-08-13T16:53:01.852Z,4.80
2018-08-13T16:55:31.338Z,3.80
2018-08-13T16:58:00.505Z,3.50
2018-08-13T17:00:29.915Z,3.67
2018-08-13T17:02:58.738Z,3.40
2018-08-13T17:05:27.777Z,3.20
2018-08-13T17:07:56.127Z,3.40
2018-08-13T17:10:27.467Z,3.13
2018-08-13T17:12:56.392Z,2.77
2018-08-13T17:15:25.645Z,2.57
2018-08-13T17:17:55.262Z,2.17
2018-08-13T17:20:27.478Z,2.97
2018-08-13T17:22:56.298Z,3.20
2018-08-13T17:25:25.150Z,3.03
2018-08-13T17:27:54.322Z,3.50
2018-08-13T17:30:24.456Z,3.13
2018-08-13T17:32:54.526Z,3.40
2018-08-13T17:35:25.996Z,3.90
2018-08-13T17:37:54.265Z,3.80
2018-08-13T17:40:23.712Z,3.75
2018-08-13T17:42:53.495Z,4.03
2018-08-13T17:45:22.578Z,4.20
2018-08-13T17:47:51.537Z,3.60
2018-08-13T17:50:20.978Z,4.77
2018-08-13T17:52:49.264Z,4.47
2018-08-13T17:55:17.922Z,4.73
2018-08-13T17:57:46.374Z,4.57
2018-08-13T18:00:16.081Z,3.60
2018-08-13T18:02:44.683Z,3.43
2018-08-13T18:05:15.603Z,4.10
2018-08-13T18:07:44.055Z,4.07
2018-08-13T18:10:14.090Z,3.93
2018-08-13T18:12:42.376Z,3.50
2018-08-13T18:15:14.316Z,3.90
2018-08-13T18:17:43.048Z,4.30
2018-08-13T18:20:11.611Z,4.10
2018-08-13T18:22:39.939Z,3.97
2018-08-13T18:25:09.923Z,4.50
2018-08-13T18:27:38.545Z,4.70
2018-08-13T18:30:10.438Z,4.00
2018-08-13T18:32:38.735Z,4.10
2018-08-13T18:35:07.995Z,4.50
2018-08-13T18:37:36.267Z,3.83
2018-08-13T18:40:06.826Z,2.63
2018-08-13T18:42:35.094Z,2.83
2018-08-13T18:45:05.314Z,2.27
2018-08-13T18:47:33.585Z,2.10
2018-08-13T18:50:01.866Z,1.97
2018-08-13T18:52:30.163Z,2.10
2018-08-13T18:54:58.557Z,2.03
2018-08-13T18:57:26.855Z,2.60
2018-08-13T18:59:55.116Z,2.43
2018-08-13T19:02:23.386Z,3.50
2018-08-13T19:04:51.933Z,2.80
2018-08-13T19:07:20.137Z,2.50
2018-08-13T19:09:48.373Z,3.07
2018-08-13T19:12:16.842Z,2.83
2018-08-13T19:14:45.348Z,3.30
2018-08-13T19:17:14.904Z,3.73
2018-08-13T19:19:43.154Z,3.00
2018-08-13T19:22:11.651Z,3.00
2018-08-13T19:24:40.139Z,2.90
2018-08-13T19:27:08.417Z,2.90
2018-08-13T19:29:36.816Z,3.23
2018-08-13T19:32:05.116Z,3.23
2018-08-13T19:34:33.547Z,2.80
2018-08-13T19:37:01.872Z,3.10
2018-08-13T19:39:30.193Z,2.63
2018-08-13T19:41:58.592Z,3.47
2018-08-13T19:44:27.962Z,3.30
2018-08-13T19:46:56.273Z,3.17
2018-08-13T19:49:24.542Z,3.33
2018-08-13T19:51:52.810Z,3.17
2018-08-13T19:54:21.265Z,3.37
2018-08-13T19:56:49.564Z,3.37
2018-08-13T19:59:17.856Z,3.70
2018-08-13T20:01:46.216Z,3.30
2018-08-13T20:04:14.488Z,3.87
2018-08-13T20:06:42.738Z,4.00
2018-08-13T20:09:11.729Z,4.07
2018-08-13T20:11:40.027Z,4.07
2018-08-13T20:14:10.516Z,4.77
2018-08-13T20:16:38.930Z,4.33
2018-08-13T20:22:06.167Z,4.30
2018-08-13T20:24:34.539Z,4.30
2018-08-13T20:27:02.875Z,4.73
2018-08-13T20:29:31.132Z,4.00
2018-08-13T20:31:59.400Z,4.33
2018-08-13T20:34:27.851Z,4.80
2018-08-13T20:36:56.130Z,4.60
2018-08-13T20:39:24.435Z,5.03
2018-08-13T20:41:52.713Z,4.90
2018-08-13T20:44:21.125Z,5.27
2018-08-13T20:46:49.417Z,5.27
2018-08-13T20:49:17.717Z,4.80
2018-08-13T20:51:46.011Z,5.80
2018-08-13T20:54:14.457Z,5.90
2018-08-13T20:56:42.712Z,5.97
2018-08-13T20:59:10.992Z,5.53
2018-08-13T21:01:39.337Z,5.57
2018-08-13T21:04:07.611Z,6.40
2018-08-13T21:06:35.868Z,6.00
2018-08-13T21:09:07.685Z,5.87
2018-08-13T21:11:35.959Z,6.10
2018-08-13T21:14:05.807Z,5.90
2018-08-13T21:16:34.218Z,5.80
2018-08-13T21:19:02.560Z,5.77
2018-08-13T21:21:30.943Z,5.53
2018-08-13T21:23:59.294Z,5.07
2018-08-13T21:26:27.649Z,5.70
2018-08-13T21:28:55.956Z,5.67
2018-08-13T21:31:24.400Z,6.23
2018-08-13T21:33:52.612Z,5.53
2018-08-13T21:36:20.877Z,5.40
2018-08-13T21:38:49.129Z,5.77
2018-08-13T21:41:17.366Z,5.57
2018-08-13T21:43:45.721Z,4.60
2018-08-13T21:49:17.685Z,4.03
2018-08-13T21:51:45.919Z,3.20
2018-08-13T21:54:14.247Z,3.30
2018-08-13T21:56:42.578Z,3.53
2018-08-13T21:59:10.873Z,2.93
2018-08-13T22:01:44.467Z,3.20
2018-08-13T22:04:13.456Z,3.00
2018-08-13T22:06:41.794Z,3.17
2018-08-13T22:09:10.577Z,3.90
2018-08-13T22:11:38.841Z,3.20
2018-08-13T22:14:08.841Z,3.80
2018-08-13T22:16:37.145Z,3.40
2018-08-13T22:19:05.747Z,3.63
2018-08-13T22:21:34.078Z,3.97
2018-08-13T22:24:13.921Z,4.10
2018-08-13T22:26:42.202Z,3.40
2018-08-13T22:29:10.471Z,3.90
2018-08-13T22:31:38.768Z,3.50
2018-08-13T22:34:08.086Z,4.33
2018-08-13T22:36:36.456Z,3.70
2018-08-13T22:39:06.790Z,3.63
2018-08-13T22:41:35.182Z,3.70
2018-08-13T22:44:04.511Z,3.50
2018-08-13T22:46:32.836Z,3.27
2018-08-13T22:49:01.199Z,3.30
2018-08-13T22:51:29.538Z,3.50
2018-08-13T22:53:58.011Z,3.17
2018-08-13T22:56:26.297Z,3.30
2018-08-13T22:58:54.516Z,3.27
2018-08-13T23:01:22.861Z,3.27
2018-08-13T23:03:51.300Z,2.97
2018-08-13T23:06:19.920Z,2.83
2018-08-13T23:08:48.307Z,2.80
2018-08-13T23:11:16.540Z,2.55
2018-08-13T23:13:44.932Z,2.87
2018-08-13T23:16:13.184Z,2.87
2018-08-13T23:18:41.442Z,3.20
2018-08-13T23:21:09.738Z,2.70
2018-08-13T23:23:38.124Z,2.93
2018-08-13T23:26:06.520Z,3.00
2018-08-13T23:28:34.818Z,2.43
2018-08-13T23:31:03.068Z,2.90
2018-08-13T23:33:31.490Z,2.43
2018-08-13T23:35:59.752Z,2.37
2018-08-13T23:38:28.034Z,2.40
2018-08-13T23:40:56.340Z,2.30
2018-08-13T23:43:24.797Z,2.70
2018-08-13T23:45:53.113Z,2.27
2018-08-13T23:48:21.352Z,2.10
2018-08-13T23:50:49.921Z,2.07
2018-08-13T23:53:18.343Z,2.00
2018-08-13T23:55:46.632Z,1.87
2018-08-13T23:58:14.924Z,1.80
